sensor_id;sensor_type;location;lat;lon;timestamp;pressure;altitude;pressure_sealevel;temperature;humidity
46007;BME280;31738;50.188;8.524;2023-05-14T00:00:38;98978.19;;;13.72;78.47
46007;BME280;31738;50.188;8.524;2023-05-14T00:03:04;98976.59;;;13.71;78.70
46007;BME280;31738;50.188;8.524;2023-05-14T00:05:29;98975.00;;;13.70;78.25
46007;BME280;31738;50.188;8.524;2023-05-14T00:07:55;98973.31;;;13.74;78.14
46007;BME280;31738;50.188;8.524;2023-05-14T00:10:20;98974.34;;;13.78;77.85
46007;BME280;31738;50.188;8.524;2023-05-14T00:12:47;98975.63;;;13.86;77.38
46007;BME280;31738;50.188;8.524;2023-05-14T00:15:12;98977.72;;;13.89;76.86
46007;BME280;31738;50.188;8.524;2023-05-14T00:17:37;98977.44;;;13.90;76.16
46007;BME280;31738;50.188;8.524;2023-05-14T00:20:04;98978.50;;;13.89;76.11
46007;BME280;31738;50.188;8.524;2023-05-14T00:22:32;98980.44;;;13.89;76.12
46007;BME280;31738;50.188;8.524;2023-05-14T00:24:57;98971.53;;;13.88;75.74
46007;BME280;31738;50.188;8.524;2023-05-14T00:27:23;98970.72;;;13.88;75.71
46007;BME280;31738;50.188;8.524;2023-05-14T00:29:49;98978.81;;;13.88;76.00
46007;BME280;31738;50.188;8.524;2023-05-14T00:32:14;98971.00;;;13.86;76.13
46007;BME280;31738;50.188;8.524;2023-05-14T00:34:40;98971.59;;;13.83;75.96
46007;BME280;31738;50.188;8.524;2023-05-14T00:37:05;98976.78;;;13.80;76.49
46007;BME280;31738;50.188;8.524;2023-05-14T00:39:31;98979.72;;;13.78;76.22
46007;BME280;31738;50.188;8.524;2023-05-14T00:41:56;98976.47;;;13.81;75.69
46007;BME280;31738;50.188;8.524;2023-05-14T00:44:25;98980.19;;;13.85;75.41
46007;BME280;31738;50.188;8.524;2023-05-14T00:46:51;98975.31;;;13.87;75.60
46007;BME280;31738;50.188;8.524;2023-05-14T00:49:17;98973.69;;;13.86;75.62
46007;BME280;31738;50.188;8.524;2023-05-14T00:51:46;98974.28;;;13.83;75.60
46007;BME280;31738;50.188;8.524;2023-05-14T00:54:13;98978.06;;;13.82;75.60
46007;BME280;31738;50.188;8.524;2023-05-14T00:56:41;98979.97;;;13.82;75.55
46007;BME280;31738;50.188;8.524;2023-05-14T00:59:10;98974.28;;;13.83;75.29
46007;BME280;31738;50.188;8.524;2023-05-14T01:01:36;98971.59;;;13.83;75.86
46007;BME280;31738;50.188;8.524;2023-05-14T01:04:02;98971.59;;;13.83;75.59
46007;BME280;31738;50.188;8.524;2023-05-14T01:11:59;98971.72;;;13.73;76.26
46007;BME280;31738;50.188;8.524;2023-05-14T01:16:57;98963.22;;;13.61;76.72
46007;BME280;31738;50.188;8.524;2023-05-14T01:19:35;98961.16;;;13.53;77.21
46007;BME280;31738;50.188;8.524;2023-05-14T01:22:01;98957.41;;;13.49;77.66
46007;BME280;31738;50.188;8.524;2023-05-14T01:24:26;98948.59;;;13.43;77.93
46007;BME280;31738;50.188;8.524;2023-05-14T01:26:54;98945.09;;;13.43;77.74
46007;BME280;31738;50.188;8.524;2023-05-14T01:29:22;98944.88;;;13.39;78.26
46007;BME280;31738;50.188;8.524;2023-05-14T01:31:49;98947.88;;;13.38;78.61
46007;BME280;31738;50.188;8.524;2023-05-14T01:34:19;98935.53;;;13.32;78.57
46007;BME280;31738;50.188;8.524;2023-05-14T01:36:46;98936.97;;;13.24;78.76
46007;BME280;31738;50.188;8.524;2023-05-14T01:39:13;98940.00;;;13.18;79.15
46007;BME280;31738;50.188;8.524;2023-05-14T01:41:40;98926.28;;;13.14;79.41
46007;BME280;31738;50.188;8.524;2023-05-14T01:48:13;98932.63;;;12.95;79.52
46007;BME280;31738;50.188;8.524;2023-05-14T01:50:39;98935.84;;;12.97;79.65
46007;BME280;31738;50.188;8.524;2023-05-14T01:53:04;98934.75;;;12.98;79.76
46007;BME280;31738;50.188;8.524;2023-05-14T01:55:30;98927.25;;;13.00;79.78
46007;BME280;31738;50.188;8.524;2023-05-14T01:57:56;98925.06;;;13.02;79.57
46007;BME280;31738;50.188;8.524;2023-05-14T02:00:22;98923.97;;;13.03;79.58
46007;BME280;31738;50.188;8.524;2023-05-14T02:02:48;98918.03;;;13.06;79.48
46007;BME280;31738;50.188;8.524;2023-05-14T02:05:15;98932.00;;;13.08;79.40
46007;BME280;31738;50.188;8.524;2023-05-14T02:07:40;98922.31;;;13.07;79.20
46007;BME280;31738;50.188;8.524;2023-05-14T02:10:08;98922.34;;;13.02;79.19
46007;BME280;31738;50.188;8.524;2023-05-14T02:12:33;98923.47;;;12.96;79.40
46007;BME280;31738;50.188;8.524;2023-05-14T02:14:59;98919.22;;;12.90;79.85
46007;BME280;31738;50.188;8.524;2023-05-14T02:17:26;98915.22;;;12.87;80.29
46007;BME280;31738;50.188;8.524;2023-05-14T02:19:52;98909.00;;;12.87;80.04
46007;BME280;31738;50.188;8.524;2023-05-14T02:22:18;98908.50;;;12.85;80.42
46007;BME280;31738;50.188;8.524;2023-05-14T02:24:44;98910.41;;;12.84;80.60
46007;BME280;31738;50.188;8.524;2023-05-14T02:27:10;98900.97;;;12.82;80.47
46007;BME280;31738;50.188;8.524;2023-05-14T02:29:37;98909.06;;;12.82;80.67
46007;BME280;31738;50.188;8.524;2023-05-14T02:32:03;98895.09;;;12.80;80.82
46007;BME280;31738;50.188;8.524;2023-05-14T02:34:28;98899.94;;;12.78;80.69
46007;BME280;31738;50.188;8.524;2023-05-14T02:36:54;98902.97;;;12.71;80.72
46007;BME280;31738;50.188;8.524;2023-05-14T02:39:19;98899.00;;;12.64;81.01
46007;BME280;31738;50.188;8.524;2023-05-14T02:41:45;98902.28;;;12.56;81.09
46007;BME280;31738;50.188;8.524;2023-05-14T02:44:10;98895.34;;;12.50;81.32
46007;BME280;31738;50.188;8.524;2023-05-14T02:46:36;98899.13;;;12.49;81.39
46007;BME280;31738;50.188;8.524;2023-05-14T02:49:01;98891.88;;;12.49;81.62
46007;BME280;31738;50.188;8.524;2023-05-14T02:51:27;98889.94;;;12.55;81.32
46007;BME280;31738;50.188;8.524;2023-05-14T02:53:52;98894.19;;;12.61;80.98
46007;BME280;31738;50.188;8.524;2023-05-14T02:56:18;98886.06;;;12.66;81.07
46007;BME280;31738;50.188;8.524;2023-05-14T02:58:43;98879.88;;;12.65;80.79
46007;BME280;31738;50.188;8.524;2023-05-14T03:01:09;98891.44;;;12.66;80.78
46007;BME280;31738;50.188;8.524;2023-05-14T03:03:35;98884.44;;;12.65;80.94
46007;BME280;31738;50.188;8.524;2023-05-14T03:06:03;98885.25;;;12.65;81.31
46007;BME280;31738;50.188;8.524;2023-05-14T03:08:28;98887.13;;;12.65;81.06
46007;BME280;31738;50.188;8.524;2023-05-14T03:10:54;98891.22;;;12.62;81.08
46007;BME280;31738;50.188;8.524;2023-05-14T03:13:19;98887.19;;;12.60;81.21
46007;BME280;31738;50.188;8.524;2023-05-14T03:15:45;98882.38;;;12.57;81.48
46007;BME280;31738;50.188;8.524;2023-05-14T03:18:12;98881.31;;;12.53;81.63
46007;BME280;31738;50.188;8.524;2023-05-14T03:20:38;98887.81;;;12.52;81.56
46007;BME280;31738;50.188;8.524;2023-05-14T03:23:04;98885.69;;;12.49;81.69
46007;BME280;31738;50.188;8.524;2023-05-14T03:25:30;98882.44;;;12.47;81.94
46007;BME280;31738;50.188;8.524;2023-05-14T03:27:57;98875.75;;;12.44;81.68
46007;BME280;31738;50.188;8.524;2023-05-14T03:30:22;98878.19;;;12.41;82.20
46007;BME280;31738;50.188;8.524;2023-05-14T03:32:48;98874.97;;;12.39;81.95
46007;BME280;31738;50.188;8.524;2023-05-14T03:35:14;98869.38;;;12.35;82.15
46007;BME280;31738;50.188;8.524;2023-05-14T03:37:40;98866.97;;;12.34;82.10
46007;BME280;31738;50.188;8.524;2023-05-14T03:40:06;98875.31;;;12.32;82.04
46007;BME280;31738;50.188;8.524;2023-05-14T03:42:31;98871.28;;;12.30;82.59
46007;BME280;31738;50.188;8.524;2023-05-14T03:44:57;98869.44;;;12.25;82.50
46007;BME280;31738;50.188;8.524;2023-05-14T03:47:22;98865.44;;;12.23;82.59
46007;BME280;31738;50.188;8.524;2023-05-14T03:49:48;98863.03;;;12.21;82.91
46007;BME280;31738;50.188;8.524;2023-05-14T03:52:14;98867.09;;;12.19;82.92
46007;BME280;31738;50.188;8.524;2023-05-14T03:54:42;98871.94;;;12.17;82.95
46007;BME280;31738;50.188;8.524;2023-05-14T03:57:07;98870.88;;;12.13;83.20
46007;BME280;31738;50.188;8.524;2023-05-14T03:59:33;98860.13;;;12.13;83.04
46007;BME280;31738;50.188;8.524;2023-05-14T04:01:58;98869.56;;;12.10;83.29
46007;BME280;31738;50.188;8.524;2023-05-14T04:04:24;98868.25;;;12.07;83.43
46007;BME280;31738;50.188;8.524;2023-05-14T04:06:50;98861.78;;;12.03;83.56
46007;BME280;31738;50.188;8.524;2023-05-14T04:09:15;98862.13;;;11.97;83.41
46007;BME280;31738;50.188;8.524;2023-05-14T04:11:41;98861.31;;;11.96;84.40
46007;BME280;31738;50.188;8.524;2023-05-14T04:14:06;98855.94;;;11.96;84.03
46007;BME280;31738;50.188;8.524;2023-05-14T04:16:32;98862.88;;;12.02;83.85
46007;BME280;31738;50.188;8.524;2023-05-14T04:19:00;98865.03;;;12.05;83.81
46007;BME280;31738;50.188;8.524;2023-05-14T04:21:26;98865.84;;;12.06;83.87
46007;BME280;31738;50.188;8.524;2023-05-14T04:23:51;98864.47;;;12.08;83.90
46007;BME280;31738;50.188;8.524;2023-05-14T04:26:17;98863.34;;;12.15;83.66
46007;BME280;31738;50.188;8.524;2023-05-14T04:28:42;98868.66;;;12.25;83.82
46007;BME280;31738;50.188;8.524;2023-05-14T04:31:08;98861.03;;;12.37;83.58
46007;BME280;31738;50.188;8.524;2023-05-14T04:33:33;98873.31;;;12.48;82.81
46007;BME280;31738;50.188;8.524;2023-05-14T04:35:58;98872.19;;;12.54;82.15
46007;BME280;31738;50.188;8.524;2023-05-14T04:38:24;98874.03;;;12.58;82.50
46007;BME280;31738;50.188;8.524;2023-05-14T04:40:50;98880.44;;;12.62;82.21
46007;BME280;31738;50.188;8.524;2023-05-14T04:43:15;98882.84;;;12.64;81.96
46007;BME280;31738;50.188;8.524;2023-05-14T04:45:41;98886.84;;;12.66;81.77
46007;BME280;31738;50.188;8.524;2023-05-14T04:48:07;98895.16;;;12.70;81.92
46007;BME280;31738;50.188;8.524;2023-05-14T04:50:33;98896.78;;;12.71;81.58
46007;BME280;31738;50.188;8.524;2023-05-14T04:52:58;98896.50;;;12.72;82.24
46007;BME280;31738;50.188;8.524;2023-05-14T04:55:24;98901.63;;;12.74;82.02
46007;BME280;31738;50.188;8.524;2023-05-14T04:57:50;98886.53;;;12.73;82.28
46007;BME280;31738;50.188;8.524;2023-05-14T05:00:16;98895.94;;;12.75;82.17
46007;BME280;31738;50.188;8.524;2023-05-14T05:02:42;98892.91;;;12.82;82.04
46007;BME280;31738;50.188;8.524;2023-05-14T05:05:07;98889.06;;;12.88;82.11
46007;BME280;31738;50.188;8.524;2023-05-14T05:07:34;98897.13;;;12.93;81.73
46007;BME280;31738;50.188;8.524;2023-05-14T05:09:59;98893.56;;;12.97;81.77
46007;BME280;31738;50.188;8.524;2023-05-14T05:12:25;98890.03;;;13.02;81.76
46007;BME280;31738;50.188;8.524;2023-05-14T05:14:55;98895.91;;;13.09;81.58
46007;BME280;31738;50.188;8.524;2023-05-14T05:17:20;98895.06;;;13.13;80.96
46007;BME280;31738;50.188;8.524;2023-05-14T05:19:46;98897.38;;;13.20;80.63
46007;BME280;31738;50.188;8.524;2023-05-14T05:22:12;98898.44;;;13.24;80.09
46007;BME280;31738;50.188;8.524;2023-05-14T05:24:37;98902.16;;;13.28;80.59
46007;BME280;31738;50.188;8.524;2023-05-14T05:27:03;98900.50;;;13.32;80.33
46007;BME280;31738;50.188;8.524;2023-05-14T05:29:29;98898.03;;;13.35;80.28
46007;BME280;31738;50.188;8.524;2023-05-14T05:31:55;98899.84;;;13.40;80.09
46007;BME280;31738;50.188;8.524;2023-05-14T05:34:20;98898.22;;;13.44;80.39
46007;BME280;31738;50.188;8.524;2023-05-14T05:36:46;98901.41;;;13.46;80.57
46007;BME280;31738;50.188;8.524;2023-05-14T05:39:11;98907.31;;;13.48;80.31
46007;BME280;31738;50.188;8.524;2023-05-14T05:41:37;98911.59;;;13.49;80.17
46007;BME280;31738;50.188;8.524;2023-05-14T05:44:03;98900.28;;;13.52;80.10
46007;BME280;31738;50.188;8.524;2023-05-14T05:46:28;98899.69;;;13.55;80.23
46007;BME280;31738;50.188;8.524;2023-05-14T05:48:54;98902.09;;;13.56;80.11
46007;BME280;31738;50.188;8.524;2023-05-14T05:51:19;98911.50;;;13.59;80.08
46007;BME280;31738;50.188;8.524;2023-05-14T05:53:45;98914.47;;;13.57;79.84
46007;BME280;31738;50.188;8.524;2023-05-14T05:56:10;98903.69;;;13.57;79.77
46007;BME280;31738;50.188;8.524;2023-05-14T05:58:35;98905.53;;;13.62;79.92
46007;BME280;31738;50.188;8.524;2023-05-14T06:01:01;98907.06;;;13.68;79.80
46007;BME280;31738;50.188;8.524;2023-05-14T06:03:27;98911.00;;;13.75;79.59
46007;BME280;31738;50.188;8.524;2023-05-14T06:05:52;98903.09;;;13.84;79.71
46007;BME280;31738;50.188;8.524;2023-05-14T06:08:18;98909.94;;;13.95;79.47
46007;BME280;31738;50.188;8.524;2023-05-14T06:10:43;98910.81;;;14.09;79.52
46007;BME280;31738;50.188;8.524;2023-05-14T06:13:09;98912.53;;;14.24;78.93
46007;BME280;31738;50.188;8.524;2023-05-14T06:15:35;98912.81;;;14.41;79.03
46007;BME280;31738;50.188;8.524;2023-05-14T06:18:01;98913.88;;;14.58;79.11
46007;BME280;31738;50.188;8.524;2023-05-14T06:20:26;98924.72;;;14.72;77.64
46007;BME280;31738;50.188;8.524;2023-05-14T06:22:51;98929.75;;;14.78;77.04
46007;BME280;31738;50.188;8.524;2023-05-14T06:25:17;98928.28;;;14.86;76.53
46007;BME280;31738;50.188;8.524;2023-05-14T06:27:43;98940.28;;;14.93;76.53
46007;BME280;31738;50.188;8.524;2023-05-14T06:30:08;98943.72;;;14.99;76.01
46007;BME280;31738;50.188;8.524;2023-05-14T06:32:35;98954.72;;;15.02;75.00
46007;BME280;31738;50.188;8.524;2023-05-14T06:35:01;98956.22;;;15.08;75.73
46007;BME280;31738;50.188;8.524;2023-05-14T06:37:26;98949.75;;;15.09;75.32
46007;BME280;31738;50.188;8.524;2023-05-14T06:39:52;98956.97;;;15.14;75.50
46007;BME280;31738;50.188;8.524;2023-05-14T06:42:17;98955.47;;;15.21;75.28
46007;BME280;31738;50.188;8.524;2023-05-14T06:44:43;98956.00;;;15.23;75.25
46007;BME280;31738;50.188;8.524;2023-05-14T06:47:09;98955.69;;;15.25;75.24
46007;BME280;31738;50.188;8.524;2023-05-14T06:49:35;98969.91;;;15.30;74.98
46007;BME280;31738;50.188;8.524;2023-05-14T06:52:00;98966.09;;;15.31;75.05
46007;BME280;31738;50.188;8.524;2023-05-14T06:54:26;98960.34;;;15.38;75.29
46007;BME280;31738;50.188;8.524;2023-05-14T06:56:52;98962.94;;;15.43;74.73
46007;BME280;31738;50.188;8.524;2023-05-14T06:59:17;98958.25;;;15.49;74.95
46007;BME280;31738;50.188;8.524;2023-05-14T07:01:43;98959.44;;;15.56;74.06
46007;BME280;31738;50.188;8.524;2023-05-14T07:04:08;98965.44;;;15.67;73.87
46007;BME280;31738;50.188;8.524;2023-05-14T07:06:34;98964.16;;;15.78;73.79
46007;BME280;31738;50.188;8.524;2023-05-14T07:09:00;98962.34;;;15.87;73.85
46007;BME280;31738;50.188;8.524;2023-05-14T07:11:26;98969.66;;;16.00;73.23
46007;BME280;31738;50.188;8.524;2023-05-14T07:13:51;98964.16;;;16.05;72.92
46007;BME280;31738;50.188;8.524;2023-05-14T07:16:17;98960.00;;;16.21;72.81
46007;BME280;31738;50.188;8.524;2023-05-14T07:18:43;98966.69;;;16.37;71.70
46007;BME280;31738;50.188;8.524;2023-05-14T07:21:08;98964.28;;;16.49;71.68
46007;BME280;31738;50.188;8.524;2023-05-14T07:23:34;98968.97;;;16.57;70.91
46007;BME280;31738;50.188;8.524;2023-05-14T07:26:04;98967.13;;;16.66;70.23
46007;BME280;31738;50.188;8.524;2023-05-14T07:28:30;98964.16;;;16.76;69.55
46007;BME280;31738;50.188;8.524;2023-05-14T07:30:56;98973.75;;;16.82;69.72
46007;BME280;31738;50.188;8.524;2023-05-14T07:33:21;98969.47;;;16.81;69.23
46007;BME280;31738;50.188;8.524;2023-05-14T07:35:47;98983.00;;;16.81;68.47
46007;BME280;31738;50.188;8.524;2023-05-14T07:38:13;98969.81;;;16.88;68.62
46007;BME280;31738;50.188;8.524;2023-05-14T07:40:38;98979.31;;;16.99;68.89
46007;BME280;31738;50.188;8.524;2023-05-14T07:43:04;98981.63;;;17.14;67.97
46007;BME280;31738;50.188;8.524;2023-05-14T07:45:29;98979.78;;;17.23;67.09
46007;BME280;31738;50.188;8.524;2023-05-14T07:47:54;98977.94;;;17.32;67.02
46007;BME280;31738;50.188;8.524;2023-05-14T07:50:20;98979.16;;;17.48;67.05
46007;BME280;31738;50.188;8.524;2023-05-14T07:52:46;98985.78;;;17.64;67.74
46007;BME280;31738;50.188;8.524;2023-05-14T07:55:11;98970.00;;;17.75;66.54
46007;BME280;31738;50.188;8.524;2023-05-14T07:57:37;98978.16;;;17.83;65.77
46007;BME280;31738;50.188;8.524;2023-05-14T08:00:03;98975.97;;;17.94;66.30
46007;BME280;31738;50.188;8.524;2023-05-14T08:02:37;98980.31;;;18.03;65.93
46007;BME280;31738;50.188;8.524;2023-05-14T08:05:03;98983.34;;;18.10;65.73
46007;BME280;31738;50.188;8.524;2023-05-14T08:07:29;98979.53;;;18.20;64.89
46007;BME280;31738;50.188;8.524;2023-05-14T08:09:55;98990.25;;;18.25;63.27
46007;BME280;31738;50.188;8.524;2023-05-14T08:12:21;98991.22;;;18.29;63.32
46007;BME280;31738;50.188;8.524;2023-05-14T08:14:46;98993.16;;;18.37;61.84
46007;BME280;31738;50.188;8.524;2023-05-14T08:17:12;98987.28;;;18.43;61.99
46007;BME280;31738;50.188;8.524;2023-05-14T08:19:37;98986.50;;;18.51;61.98
46007;BME280;31738;50.188;8.524;2023-05-14T08:22:03;98994.34;;;18.61;62.43
46007;BME280;31738;50.188;8.524;2023-05-14T08:24:29;98987.63;;;18.76;62.93
46007;BME280;31738;50.188;8.524;2023-05-14T08:26:54;98994.31;;;18.87;60.44
46007;BME280;31738;50.188;8.524;2023-05-14T08:29:20;98994.19;;;19.01;60.87
46007;BME280;31738;50.188;8.524;2023-05-14T08:31:46;98991.75;;;19.08;60.74
46007;BME280;31738;50.188;8.524;2023-05-14T08:34:11;98991.59;;;19.13;60.10
46007;BME280;31738;50.188;8.524;2023-05-14T08:36:37;99000.22;;;19.06;60.42
46007;BME280;31738;50.188;8.524;2023-05-14T08:39:03;99014.16;;;18.88;58.04
46007;BME280;31738;50.188;8.524;2023-05-14T08:41:28;99004.06;;;18.97;59.68
46007;BME280;31738;50.188;8.524;2023-05-14T08:46:23;99002.59;;;19.25;60.07
46007;BME280;31738;50.188;8.524;2023-05-14T08:49:01;99004.84;;;19.40;57.82
46007;BME280;31738;50.188;8.524;2023-05-14T08:51:29;99018.75;;;19.21;56.13
46007;BME280;31738;50.188;8.524;2023-05-14T08:53:56;99014.78;;;19.10;56.89
46007;BME280;31738;50.188;8.524;2023-05-14T08:56:24;99005.50;;;19.20;58.64
46007;BME280;31738;50.188;8.524;2023-05-14T08:58:50;99010.94;;;19.37;58.01
46007;BME280;31738;50.188;8.524;2023-05-14T09:01:15;99006.56;;;19.53;55.80
46007;BME280;31738;50.188;8.524;2023-05-14T09:03:43;99000.78;;;19.63;56.98
46007;BME280;31738;50.188;8.524;2023-05-14T09:06:10;98999.78;;;19.76;57.16
46007;BME280;31738;50.188;8.524;2023-05-14T09:08:36;99000.09;;;19.74;57.02
46007;BME280;31738;50.188;8.524;2023-05-14T09:11:03;99001.97;;;19.82;57.65
46007;BME280;31738;50.188;8.524;2023-05-14T09:13:28;99008.19;;;19.45;56.78
46007;BME280;31738;50.188;8.524;2023-05-14T09:15:54;99020.50;;;19.26;56.20
46007;BME280;31738;50.188;8.524;2023-05-14T09:18:20;99010.94;;;19.20;56.61
46007;BME280;31738;50.188;8.524;2023-05-14T09:20:46;99004.53;;;19.16;56.74
46007;BME280;31738;50.188;8.524;2023-05-14T09:23:11;99005.50;;;19.37;55.87
46007;BME280;31738;50.188;8.524;2023-05-14T09:25:37;99016.34;;;19.54;55.15
46007;BME280;31738;50.188;8.524;2023-05-14T09:28:07;98998.47;;;19.82;55.22
46007;BME280;31738;50.188;8.524;2023-05-14T09:30:33;99006.84;;;20.06;54.08
46007;BME280;31738;50.188;8.524;2023-05-14T09:32:59;99013.63;;;20.29;54.41
46007;BME280;31738;50.188;8.524;2023-05-14T09:35:24;99015.09;;;20.47;53.92
46007;BME280;31738;50.188;8.524;2023-05-14T09:37:52;99012.94;;;20.61;52.30
46007;BME280;31738;50.188;8.524;2023-05-14T09:40:19;99015.84;;;20.36;53.02
46007;BME280;31738;50.188;8.524;2023-05-14T09:42:46;99021.22;;;20.15;53.99
46007;BME280;31738;50.188;8.524;2023-05-14T09:45:13;99019.31;;;20.07;53.58
46007;BME280;31738;50.188;8.524;2023-05-14T09:47:39;99021.66;;;20.25;53.37
46007;BME280;31738;50.188;8.524;2023-05-14T09:50:05;99014.63;;;20.45;54.81
46007;BME280;31738;50.188;8.524;2023-05-14T09:52:31;99013.19;;;20.68;53.15
46007;BME280;31738;50.188;8.524;2023-05-14T09:54:58;99015.84;;;20.56;52.96
46007;BME280;31738;50.188;8.524;2023-05-14T09:57:24;99023.28;;;20.47;53.21
46007;BME280;31738;50.188;8.524;2023-05-14T09:59:51;99018.69;;;20.39;53.28
46007;BME280;31738;50.188;8.524;2023-05-14T10:04:56;99034.28;;;20.30;51.80
46007;BME280;31738;50.188;8.524;2023-05-14T10:07:28;99024.91;;;20.10;52.82
46007;BME280;31738;50.188;8.524;2023-05-14T10:09:59;99029.28;;;20.03;53.86
46007;BME280;31738;50.188;8.524;2023-05-14T10:12:28;99035.22;;;19.96;53.36
46007;BME280;31738;50.188;8.524;2023-05-14T10:15:00;99021.00;;;19.91;54.64
46007;BME280;31738;50.188;8.524;2023-05-14T10:17:30;99017.97;;;19.92;55.00
46007;BME280;31738;50.188;8.524;2023-05-14T10:19:57;99011.19;;;19.98;55.16
46007;BME280;31738;50.188;8.524;2023-05-14T10:22:30;99006.97;;;20.09;55.18
46007;BME280;31738;50.188;8.524;2023-05-14T10:24:58;98999.59;;;20.39;55.04
46007;BME280;31738;50.188;8.524;2023-05-14T10:27:24;98993.25;;;20.76;54.76
46007;BME280;31738;50.188;8.524;2023-05-14T10:29:51;99004.28;;;21.00;54.00
46007;BME280;31738;50.188;8.524;2023-05-14T10:32:21;99006.72;;;20.93;52.79
46007;BME280;31738;50.188;8.524;2023-05-14T10:34:51;99006.25;;;20.91;52.92
46007;BME280;31738;50.188;8.524;2023-05-14T10:37:24;99000.63;;;20.96;53.35
46007;BME280;31738;50.188;8.524;2023-05-14T10:39:52;99007.47;;;21.02;52.87
46007;BME280;31738;50.188;8.524;2023-05-14T10:42:33;99005.91;;;21.01;52.73
46007;BME280;31738;50.188;8.524;2023-05-14T10:45:06;99005.63;;;20.74;53.44
46007;BME280;31738;50.188;8.524;2023-05-14T10:47:37;99006.41;;;20.74;53.18
46007;BME280;31738;50.188;8.524;2023-05-14T10:50:05;99010.00;;;20.66;52.46
46007;BME280;31738;50.188;8.524;2023-05-14T10:52:31;98995.66;;;20.57;53.14
46007;BME280;31738;50.188;8.524;2023-05-14T10:55:00;98996.56;;;20.61;54.32
46007;BME280;31738;50.188;8.524;2023-05-14T10:57:28;99010.53;;;20.60;51.97
46007;BME280;31738;50.188;8.524;2023-05-14T10:59:56;98995.75;;;20.61;53.33
46007;BME280;31738;50.188;8.524;2023-05-14T11:02:26;98994.91;;;20.69;53.89
46007;BME280;31738;50.188;8.524;2023-05-14T11:05:02;98991.66;;;20.75;54.11
46007;BME280;31738;50.188;8.524;2023-05-14T11:07:31;98994.31;;;20.84;53.12
46007;BME280;31738;50.188;8.524;2023-05-14T11:10:10;98979.53;;;21.05;53.31
46007;BME280;31738;50.188;8.524;2023-05-14T11:12:38;98984.16;;;21.25;53.13
46007;BME280;31738;50.188;8.524;2023-05-14T11:15:07;98973.84;;;21.43;52.80
46007;BME280;31738;50.188;8.524;2023-05-14T11:17:37;98975.31;;;21.40;53.02
46007;BME280;31738;50.188;8.524;2023-05-14T11:20:04;98974.44;;;21.48;52.10
46007;BME280;31738;50.188;8.524;2023-05-14T11:22:30;98971.50;;;21.65;53.02
46007;BME280;31738;50.188;8.524;2023-05-14T11:24:56;98975.63;;;21.83;51.69
46007;BME280;31738;50.188;8.524;2023-05-14T11:27:22;98969.47;;;21.98;51.59
46007;BME280;31738;50.188;8.524;2023-05-14T11:29:48;98969.72;;;22.06;48.72
46007;BME280;31738;50.188;8.524;2023-05-14T11:32:15;98977.13;;;21.93;50.30
46007;BME280;31738;50.188;8.524;2023-05-14T11:34:42;98973.56;;;22.29;51.10
46007;BME280;31738;50.188;8.524;2023-05-14T11:37:09;98981.19;;;22.47;48.68
46007;BME280;31738;50.188;8.524;2023-05-14T11:39:37;98984.50;;;22.29;48.61
46007;BME280;31738;50.188;8.524;2023-05-14T11:42:10;98979.28;;;22.12;49.86
46007;BME280;31738;50.188;8.524;2023-05-14T11:44:37;98987.94;;;21.89;49.50
46007;BME280;31738;50.188;8.524;2023-05-14T11:47:03;98991.63;;;21.73;48.94
46007;BME280;31738;50.188;8.524;2023-05-14T11:49:30;98987.97;;;21.57;49.71
46007;BME280;31738;50.188;8.524;2023-05-14T11:52:02;98991.81;;;21.44;49.99
46007;BME280;31738;50.188;8.524;2023-05-14T11:54:28;98991.47;;;21.33;49.87
46007;BME280;31738;50.188;8.524;2023-05-14T11:56:55;98988.94;;;21.28;49.72
46007;BME280;31738;50.188;8.524;2023-05-14T11:59:25;98986.84;;;21.13;49.46
46007;BME280;31738;50.188;8.524;2023-05-14T12:01:51;98983.31;;;20.92;50.28
46007;BME280;31738;50.188;8.524;2023-05-14T12:04:18;98977.75;;;20.89;50.77
46007;BME280;31738;50.188;8.524;2023-05-14T12:06:53;98975.47;;;20.91;50.89
46007;BME280;31738;50.188;8.524;2023-05-14T12:09:20;98963.59;;;20.95;51.12
46007;BME280;31738;50.188;8.524;2023-05-14T12:11:47;98963.16;;;21.05;51.42
46007;BME280;31738;50.188;8.524;2023-05-14T12:14:17;98952.66;;;21.28;50.06
46007;BME280;31738;50.188;8.524;2023-05-14T12:16:44;98948.03;;;21.52;49.94
46007;BME280;31738;50.188;8.524;2023-05-14T12:19:12;98938.06;;;21.80;50.02
46007;BME280;31738;50.188;8.524;2023-05-14T12:21:39;98939.31;;;22.07;47.93
46007;BME280;31738;50.188;8.524;2023-05-14T12:24:09;98940.09;;;22.08;47.21
46007;BME280;31738;50.188;8.524;2023-05-14T12:26:35;98945.34;;;22.01;47.73
46007;BME280;31738;50.188;8.524;2023-05-14T12:29:03;98933.28;;;21.89;48.08
46007;BME280;31738;50.188;8.524;2023-05-14T12:31:35;98942.59;;;21.64;48.19
46007;BME280;31738;50.188;8.524;2023-05-14T12:34:02;98954.84;;;21.34;48.20
46007;BME280;31738;50.188;8.524;2023-05-14T12:36:29;98950.22;;;21.14;48.48
46007;BME280;31738;50.188;8.524;2023-05-14T12:39:00;98943.41;;;21.20;48.27
46007;BME280;31738;50.188;8.524;2023-05-14T12:41:27;98935.31;;;21.44;48.79
46007;BME280;31738;50.188;8.524;2023-05-14T12:43:53;98929.41;;;21.78;47.90
46007;BME280;31738;50.188;8.524;2023-05-14T12:46:18;98932.16;;;22.03;47.28
46007;BME280;31738;50.188;8.524;2023-05-14T12:48:44;98927.91;;;22.17;47.66
46007;BME280;31738;50.188;8.524;2023-05-14T12:51:10;98927.53;;;22.31;47.08
46007;BME280;31738;50.188;8.524;2023-05-14T12:53:36;98929.81;;;22.41;45.49
46007;BME280;31738;50.188;8.524;2023-05-14T12:56:01;98926.59;;;22.51;45.38
46007;BME280;31738;50.188;8.524;2023-05-14T12:58:27;98928.88;;;22.61;45.92
46007;BME280;31738;50.188;8.524;2023-05-14T13:00:52;98930.41;;;22.74;45.61
46007;BME280;31738;50.188;8.524;2023-05-14T13:03:18;98923.88;;;22.78;46.06
46007;BME280;31738;50.188;8.524;2023-05-14T13:05:43;98918.06;;;22.80;45.43
46007;BME280;31738;50.188;8.524;2023-05-14T13:08:09;98930.00;;;22.87;45.20
46007;BME280;31738;50.188;8.524;2023-05-14T13:10:34;98915.25;;;22.92;45.09
46007;BME280;31738;50.188;8.524;2023-05-14T13:13:00;98916.16;;;22.96;45.49